createdAt,value
2019-05-19T00:00:15.983Z,77.12
2019-05-19T00:02:46.191Z,76.90
2019-05-19T00:05:16.601Z,74.95
2019-05-19T00:07:46.066Z,80.42
2019-05-19T00:10:15.582Z,80.50
2019-05-19T00:12:45.040Z,83.45
2019-05-19T00:15:14.552Z,79.15
2019-05-19T00:17:44.011Z,79.17
2019-05-19T00:20:14.387Z,80.85
2019-05-19T00:22:43.896Z,76.17
2019-05-19T00:25:13.816Z,82.82
2019-05-19T00:27:43.537Z,77.58
2019-05-19T00:30:13.639Z,81.15
2019-05-19T00:32:43.341Z,79.37
2019-05-19T00:35:13.061Z,79.40
2019-05-19T00:37:42.563Z,76.02
2019-05-19T00:40:12.392Z,75.37
2019-05-19T00:42:41.836Z,81.28
2019-05-19T00:45:11.935Z,73.60
2019-05-19T00:47:41.882Z,77.65
2019-05-19T00:50:12.757Z,80.90
2019-05-19T00:52:42.154Z,81.85
2019-05-19T00:55:11.832Z,84.22
2019-05-19T00:57:41.752Z,75.92
2019-05-19T01:00:12.786Z,79.53
2019-05-19T01:02:42.313Z,79.65
2019-05-19T01:05:12.388Z,77.67
2019-05-19T01:07:41.891Z,78.17
2019-05-19T01:10:11.889Z,79.67
2019-05-19T01:12:41.381Z,80.75
2019-05-19T01:15:11.480Z,76.70
2019-05-19T01:17:40.939Z,77.00
2019-05-19T01:20:11.339Z,80.55
2019-05-19T01:22:40.804Z,83.05
2019-05-19T01:25:11.445Z,81.95
2019-05-19T01:27:41.015Z,83.27
2019-05-19T01:30:11.894Z,77.90
2019-05-19T01:32:41.251Z,84.20
2019-05-19T01:35:11.369Z,86.80
2019-05-19T01:37:40.821Z,84.20
2019-05-19T01:40:10.911Z,81.90
2019-05-19T01:42:40.380Z,80.28
2019-05-19T01:45:10.453Z,81.95
2019-05-19T01:47:39.826Z,83.15
2019-05-19T01:50:18.491Z,83.07
2019-05-19T01:52:41.481Z,81.70
2019-05-19T01:55:12.671Z,82.10
2019-05-19T01:57:42.118Z,86.42
2019-05-19T02:00:12.424Z,83.12
2019-05-19T02:02:41.866Z,80.97
2019-05-19T02:05:11.898Z,82.80
2019-05-19T02:07:41.337Z,84.95
2019-05-19T02:10:11.430Z,86.25
2019-05-19T02:12:40.800Z,82.65
2019-05-19T02:15:11.887Z,83.97
2019-05-19T02:17:41.319Z,83.62
2019-05-19T02:20:11.425Z,85.47
2019-05-19T02:22:40.884Z,85.95
2019-05-19T02:25:11.011Z,86.12
2019-05-19T02:27:40.463Z,91.55
2019-05-19T02:30:10.772Z,87.78
2019-05-19T02:32:40.268Z,89.72
2019-05-19T02:35:10.280Z,88.82
2019-05-19T02:37:39.712Z,86.08
2019-05-19T02:40:10.176Z,88.70
2019-05-19T02:42:41.524Z,92.40
2019-05-19T02:45:12.693Z,85.80
2019-05-19T02:47:43.677Z,87.53
2019-05-19T02:50:14.135Z,93.67
2019-05-19T02:52:46.514Z,91.32
2019-05-19T02:55:17.347Z,90.57
2019-05-19T02:57:47.748Z,86.28
2019-05-19T03:00:18.040Z,92.78
2019-05-19T03:02:47.490Z,89.70
2019-05-19T03:05:17.005Z,91.92
2019-05-19T03:07:47.572Z,94.42
2019-05-19T03:10:17.476Z,90.67
2019-05-19T03:12:46.854Z,89.90
2019-05-19T03:15:16.300Z,92.27
2019-05-19T03:17:45.737Z,90.77
2019-05-19T03:20:15.617Z,95.85
2019-05-19T03:22:45.055Z,92.65
2019-05-19T03:25:14.813Z,90.83
2019-05-19T03:27:44.191Z,95.38
2019-05-19T03:30:35.129Z,93.92
2019-05-19T03:33:06.230Z,92.75
2019-05-19T03:35:35.669Z,95.90
2019-05-19T03:38:05.187Z,93.15
2019-05-19T03:40:34.649Z,96.30
2019-05-19T03:43:04.348Z,95.00
2019-05-19T03:45:33.761Z,98.70
2019-05-19T03:48:03.208Z,92.50
2019-05-19T03:50:32.649Z,99.35
2019-05-19T03:53:03.428Z,97.97
2019-05-19T03:55:32.851Z,96.80
2019-05-19T03:58:04.231Z,98.87
2019-05-19T04:00:33.754Z,104.17
2019-05-19T04:03:03.382Z,101.10
2019-05-19T04:05:32.923Z,95.53
2019-05-19T04:08:02.303Z,93.82
2019-05-19T04:10:31.832Z,91.78
2019-05-19T04:13:01.205Z,99.60
2019-05-19T04:15:30.662Z,99.72
2019-05-19T04:18:00.321Z,106.00
2019-05-19T04:20:29.761Z,105.65
2019-05-19T04:23:00.139Z,103.65
2019-05-19T04:25:29.528Z,102.42
2019-05-19T04:27:58.977Z,103.67
2019-05-19T04:30:28.434Z,95.72
2019-05-19T04:32:57.890Z,101.87
2019-05-19T04:35:27.411Z,100.87
2019-05-19T04:37:56.851Z,99.45
2019-05-19T04:40:26.286Z,99.25
2019-05-19T04:42:55.741Z,98.55
2019-05-19T04:45:25.328Z,99.67
2019-05-19T04:47:54.774Z,101.53
2019-05-19T04:50:24.185Z,103.72
2019-05-19T04:52:53.832Z,99.67
2019-05-19T04:55:23.333Z,104.63
2019-05-19T04:57:52.780Z,104.25
2019-05-19T05:00:34.816Z,98.40
2019-05-19T05:03:04.305Z,101.85
2019-05-19T05:05:33.795Z,98.67
2019-05-19T05:08:03.187Z,101.47
2019-05-19T05:10:32.566Z,103.20
2019-05-19T05:13:02.030Z,106.72
2019-05-19T05:15:31.463Z,103.87
2019-05-19T05:18:00.919Z,103.25
2019-05-19T05:20:30.295Z,103.75
2019-05-19T05:23:00.036Z,98.70
2019-05-19T05:25:29.553Z,101.35
2019-05-19T05:27:59.246Z,104.87
2019-05-19T05:30:28.630Z,100.38
2019-05-19T05:32:58.169Z,102.62
2019-05-19T05:35:27.540Z,105.78
2019-05-19T05:37:56.906Z,101.18
2019-05-19T05:40:26.273Z,97.05
2019-05-19T05:42:55.708Z,97.35
2019-05-19T05:45:25.089Z,104.85
2019-05-19T05:47:54.744Z,100.22
2019-05-19T05:50:24.317Z,104.53
2019-05-19T05:52:53.789Z,106.32
2019-05-19T05:55:23.419Z,102.62
2019-05-19T05:57:52.852Z,99.87
2019-05-19T06:00:22.438Z,100.65
2019-05-19T06:02:51.852Z,102.17
2019-05-19T06:05:21.432Z,97.10
2019-05-19T06:07:50.891Z,97.90
2019-05-19T06:10:20.331Z,97.50
2019-05-19T06:12:49.799Z,95.10
2019-05-19T06:15:19.315Z,97.65
2019-05-19T06:17:48.692Z,97.78
2019-05-19T06:20:18.479Z,92.67
2019-05-19T06:22:56.645Z,96.95
2019-05-19T06:25:19.022Z,93.82
2019-05-19T06:27:48.466Z,90.25
2019-05-19T06:30:18.384Z,94.13
2019-05-19T06:32:55.530Z,90.12
2019-05-19T06:35:25.011Z,92.02
2019-05-19T06:37:54.748Z,90.17
2019-05-19T06:40:24.250Z,92.05
2019-05-19T06:42:53.704Z,92.42
2019-05-19T06:45:23.154Z,86.02
2019-05-19T06:47:52.593Z,92.60
2019-05-19T06:50:22.087Z,93.90
2019-05-19T06:52:51.605Z,90.92
2019-05-19T06:55:20.995Z,87.22
2019-05-19T06:57:50.462Z,93.85
2019-05-19T07:00:21.755Z,89.62
2019-05-19T07:02:51.263Z,85.80
2019-05-19T07:05:20.621Z,90.40
2019-05-19T07:07:50.063Z,88.87
2019-05-19T07:10:19.441Z,83.60
2019-05-19T07:12:48.948Z,77.47
2019-05-19T07:15:18.640Z,85.97
2019-05-19T07:17:48.068Z,85.62
2019-05-19T07:20:17.515Z,86.08
2019-05-19T07:22:46.996Z,83.22
2019-05-19T07:25:16.536Z,78.30
2019-05-19T07:27:46.011Z,80.85
2019-05-19T07:30:15.933Z,84.97
2019-05-19T07:32:45.436Z,77.25
2019-05-19T07:35:16.133Z,79.27
2019-05-19T07:37:45.641Z,79.35
2019-05-19T07:40:15.628Z,81.17
2019-05-19T07:42:45.012Z,75.00
2019-05-19T07:45:14.869Z,82.10
2019-05-19T07:47:44.247Z,81.82
2019-05-19T07:50:13.720Z,75.15
2019-05-19T07:52:43.618Z,78.28
2019-05-19T07:55:13.562Z,74.37
2019-05-19T07:57:43.460Z,78.42
2019-05-19T08:00:13.060Z,78.65
2019-05-19T08:02:42.500Z,81.72
2019-05-19T08:05:12.252Z,76.70
2019-05-19T08:07:41.761Z,78.72
2019-05-19T08:10:12.164Z,72.08
2019-05-19T08:12:41.544Z,75.05
2019-05-19T08:15:11.344Z,71.95
2019-05-19T08:17:40.809Z,75.47
2019-05-19T08:20:10.573Z,74.42
2019-05-19T08:22:39.928Z,75.90
2019-05-19T08:25:10.135Z,74.70
2019-05-19T08:27:39.819Z,77.87
2019-05-19T08:30:09.930Z,78.30
2019-05-19T08:32:39.444Z,73.40
2019-05-19T08:35:08.896Z,79.95
2019-05-19T08:37:38.279Z,76.15
2019-05-19T08:40:08.357Z,75.80
2019-05-19T08:42:37.724Z,71.75
2019-05-19T08:45:08.327Z,70.62
2019-05-19T08:47:37.785Z,70.70
2019-05-19T08:50:08.467Z,69.27
2019-05-19T08:52:38.044Z,73.17
2019-05-19T08:55:07.924Z,66.82
2019-05-19T08:57:37.351Z,68.42
2019-05-19T09:00:07.333Z,69.58
2019-05-19T09:02:36.788Z,64.12
2019-05-19T09:05:07.203Z,70.65
2019-05-19T09:07:36.651Z,67.20
2019-05-19T09:10:07.923Z,67.50
2019-05-19T09:12:38.275Z,68.83
2019-05-19T09:15:09.909Z,61.15
2019-05-19T09:17:39.347Z,70.12
2019-05-19T09:20:09.143Z,64.25
2019-05-19T09:22:38.577Z,59.73
2019-05-19T09:25:08.360Z,60.83
2019-05-19T09:27:38.279Z,59.93
2019-05-19T09:30:10.727Z,60.20
2019-05-19T09:32:40.210Z,63.55
2019-05-19T09:35:10.006Z,67.78
2019-05-19T09:37:39.400Z,59.42
2019-05-19T09:40:09.462Z,68.95
2019-05-19T09:42:38.891Z,65.65
2019-05-19T09:45:10.752Z,64.72
2019-05-19T09:47:40.202Z,61.83
2019-05-19T09:50:22.337Z,63.63
2019-05-19T09:52:51.788Z,54.93
2019-05-19T09:55:21.324Z,61.63
2019-05-19T09:57:50.775Z,61.35
2019-05-19T10:00:20.653Z,57.70
2019-05-19T10:02:50.105Z,56.45
2019-05-19T10:05:19.546Z,59.93
2019-05-19T10:07:49.015Z,65.42
2019-05-19T10:10:28.481Z,58.85
2019-05-19T10:12:57.939Z,57.03
2019-05-19T10:15:27.770Z,57.75
2019-05-19T10:17:57.196Z,58.80
2019-05-19T10:20:26.576Z,57.53
2019-05-19T10:22:56.351Z,61.20
2019-05-19T10:25:25.865Z,57.27
2019-05-19T10:27:55.248Z,59.88
2019-05-19T10:30:24.767Z,61.48
2019-05-19T10:32:54.156Z,55.00
2019-05-19T10:35:23.763Z,59.03
2019-05-19T10:37:53.292Z,52.03
2019-05-19T10:40:23.636Z,57.08
2019-05-19T10:42:53.523Z,53.23
2019-05-19T10:45:22.963Z,57.20
2019-05-19T10:47:52.417Z,53.40
2019-05-19T10:50:21.911Z,56.05
2019-05-19T10:52:51.284Z,57.15
2019-05-19T10:55:28.484Z,57.13
2019-05-19T10:57:51.931Z,55.63
2019-05-19T11:00:21.470Z,51.58
2019-05-19T11:02:50.911Z,52.50
2019-05-19T11:05:20.353Z,49.35
2019-05-19T11:07:49.712Z,49.10
2019-05-19T11:10:19.576Z,57.40
2019-05-19T11:12:49.014Z,54.98
2019-05-19T11:15:19.030Z,53.58
2019-05-19T11:17:48.484Z,57.83
2019-05-19T11:20:18.005Z,49.55
2019-05-19T11:22:47.459Z,54.05
2019-05-19T11:25:16.884Z,47.23
2019-05-19T11:27:46.311Z,42.88
2019-05-19T11:30:15.987Z,44.15
2019-05-19T11:32:45.347Z,43.48
2019-05-19T11:35:14.913Z,43.75
2019-05-19T11:37:44.457Z,44.38
2019-05-19T11:40:14.201Z,54.35
2019-05-19T11:42:46.767Z,43.75
2019-05-19T11:45:15.283Z,46.20
2019-05-19T11:47:44.750Z,42.62
2019-05-19T11:50:33.872Z,45.78
2019-05-19T11:53:03.410Z,44.85
2019-05-19T11:55:34.036Z,45.60
2019-05-19T11:58:03.437Z,46.15
2019-05-19T12:00:32.808Z,48.30
2019-05-19T12:03:02.256Z,44.55
2019-05-19T12:05:31.652Z,42.48
2019-05-19T12:08:04.500Z,44.63
2019-05-19T12:10:34.316Z,46.83
2019-05-19T12:13:08.908Z,44.88
2019-05-19T12:15:38.522Z,43.38
2019-05-19T12:18:07.926Z,39.48
2019-05-19T12:20:37.367Z,41.30
2019-05-19T12:23:06.890Z,42.88
2019-05-19T12:25:36.274Z,40.00
2019-05-19T12:28:05.705Z,45.28
2019-05-19T12:30:35.160Z,58.50
2019-05-19T12:33:04.684Z,41.90
2019-05-19T12:35:34.195Z,42.80
2019-05-19T12:38:03.640Z,43.55
2019-05-19T12:40:33.009Z,46.50
2019-05-19T12:43:02.444Z,43.65
2019-05-19T12:45:31.884Z,46.53
2019-05-19T12:48:01.311Z,47.40
2019-05-19T12:50:30.750Z,47.58
2019-05-19T12:53:00.146Z,46.45
2019-05-19T12:55:29.674Z,41.90
2019-05-19T12:57:59.179Z,41.45
2019-05-19T13:00:28.535Z,40.75
2019-05-19T13:02:57.920Z,43.83
2019-05-19T13:05:27.555Z,41.63
2019-05-19T13:07:56.988Z,41.85
2019-05-19T13:10:26.384Z,46.18
2019-05-19T13:12:55.827Z,41.88
2019-05-19T13:15:25.253Z,48.08
2019-05-19T13:17:54.667Z,44.65
2019-05-19T13:20:24.263Z,43.40
2019-05-19T13:22:53.863Z,36.98
2019-05-19T13:25:23.331Z,46.20
2019-05-19T13:27:52.699Z,47.60
2019-05-19T13:30:22.069Z,52.85
2019-05-19T13:32:51.550Z,45.05
2019-05-19T13:35:21.210Z,46.77
2019-05-19T13:37:50.683Z,49.35
2019-05-19T13:40:20.211Z,42.17
2019-05-19T13:42:49.640Z,49.30
2019-05-19T13:45:19.725Z,41.48
2019-05-19T13:47:49.121Z,41.73
2019-05-19T13:50:19.080Z,46.23
2019-05-19T13:52:51.091Z,45.85
2019-05-19T13:55:19.527Z,46.63
2019-05-19T13:57:48.985Z,44.35
2019-05-19T14:00:19.876Z,44.93
2019-05-19T14:02:49.496Z,46.83
2019-05-19T14:05:18.936Z,47.33
2019-05-19T14:07:48.372Z,49.83
2019-05-19T14:10:19.800Z,41.10
2019-05-19T14:12:49.227Z,42.98
2019-05-19T14:15:18.651Z,43.42
2019-05-19T14:17:48.171Z,42.55
2019-05-19T14:20:17.679Z,42.85
2019-05-19T14:22:47.037Z,45.65
2019-05-19T14:25:17.487Z,50.65
2019-05-19T14:27:46.931Z,45.45
2019-05-19T14:30:16.631Z,48.83
2019-05-19T14:32:46.008Z,82.70
2019-05-19T14:35:15.441Z,47.10
2019-05-19T14:37:45.900Z,47.23
2019-05-19T14:40:15.691Z,44.03
2019-05-19T14:42:55.939Z,40.67
2019-05-19T14:45:25.459Z,45.33
2019-05-19T14:47:54.889Z,43.78
2019-05-19T14:50:24.312Z,43.20
2019-05-19T14:52:53.826Z,44.03
2019-05-19T14:55:23.245Z,43.60
2019-05-19T14:57:52.629Z,43.13
2019-05-19T15:00:22.420Z,48.02
2019-05-19T15:02:51.868Z,43.98
2019-05-19T15:05:21.401Z,43.63
2019-05-19T15:07:50.829Z,47.55
2019-05-19T15:10:20.676Z,49.95
2019-05-19T15:12:50.141Z,48.35
2019-05-19T15:15:19.681Z,47.58
2019-05-19T15:17:49.136Z,46.73
2019-05-19T15:20:19.561Z,50.63
2019-05-19T15:22:48.936Z,54.85
2019-05-19T15:25:18.292Z,50.43
2019-05-19T15:27:59.215Z,50.65
2019-05-19T15:30:19.353Z,51.25
2019-05-19T15:32:49.180Z,48.50
2019-05-19T15:35:18.781Z,49.50
2019-05-19T15:37:48.222Z,47.33
2019-05-19T15:40:17.734Z,47.95
2019-05-19T15:42:47.159Z,44.73
2019-05-19T15:45:16.691Z,49.27
2019-05-19T15:47:46.120Z,51.83
2019-05-19T15:50:15.884Z,52.40
2019-05-19T15:52:45.351Z,50.33
2019-05-19T15:55:15.327Z,56.68
2019-05-19T15:57:44.784Z,52.20
2019-05-19T16:00:14.602Z,47.08
2019-05-19T16:02:44.052Z,55.35
2019-05-19T16:05:14.906Z,50.15
2019-05-19T16:07:44.408Z,50.52
2019-05-19T16:10:14.416Z,54.05
2019-05-19T16:12:43.795Z,53.83
2019-05-19T16:15:14.269Z,53.38
2019-05-19T16:17:43.734Z,54.23
2019-05-19T16:20:15.079Z,54.18
2019-05-19T16:22:44.549Z,49.98
2019-05-19T16:25:14.267Z,53.52
2019-05-19T16:27:43.788Z,58.05
2019-05-19T16:30:13.785Z,62.45
2019-05-19T16:32:43.234Z,54.65
2019-05-19T16:35:13.132Z,54.40
2019-05-19T16:37:42.632Z,57.10
2019-05-19T16:40:12.846Z,59.95
2019-05-19T16:42:42.567Z,61.05
2019-05-19T16:45:12.370Z,63.28
2019-05-19T16:47:41.735Z,57.00
2019-05-19T16:50:12.556Z,55.63
2019-05-19T16:52:42.027Z,58.58
2019-05-19T16:55:26.163Z,54.15
2019-05-19T16:57:56.163Z,52.62
2019-05-19T17:00:27.520Z,52.60
2019-05-19T17:02:57.413Z,49.98
2019-05-19T17:05:26.779Z,53.30
2019-05-19T17:07:56.220Z,46.77
2019-05-19T17:10:26.015Z,51.23
2019-05-19T17:12:55.512Z,48.92
2019-05-19T17:15:25.338Z,50.38
2019-05-19T17:17:54.821Z,49.83
2019-05-19T17:20:24.727Z,48.92
2019-05-19T17:22:54.107Z,49.83
2019-05-19T17:25:23.614Z,50.50
2019-05-19T17:27:52.999Z,51.88
2019-05-19T17:30:23.352Z,49.27
2019-05-19T17:32:52.825Z,56.13
2019-05-19T17:35:22.243Z,51.40
2019-05-19T17:37:51.791Z,51.48
2019-05-19T17:40:21.700Z,55.40
2019-05-19T17:42:51.148Z,50.78
2019-05-19T17:45:21.042Z,54.70
2019-05-19T17:47:53.205Z,52.38
2019-05-19T17:50:33.151Z,52.67
2019-05-19T17:53:03.111Z,55.15
2019-05-19T17:55:34.459Z,50.90
2019-05-19T17:58:04.456Z,57.70
2019-05-19T18:00:37.271Z,49.27
2019-05-19T18:03:07.625Z,54.87
2019-05-19T18:05:37.522Z,53.90
2019-05-19T18:08:07.324Z,55.85
2019-05-19T18:10:36.809Z,58.30
2019-05-19T18:13:06.264Z,58.35
2019-05-19T18:15:37.053Z,58.83
2019-05-19T18:18:06.642Z,57.70
2019-05-19T18:20:36.353Z,55.28
2019-05-19T18:23:05.789Z,57.30
2019-05-19T18:25:35.290Z,62.13
2019-05-19T18:28:05.052Z,58.73
2019-05-19T18:30:34.492Z,59.58
2019-05-19T18:33:05.020Z,62.45
2019-05-19T18:35:34.377Z,61.48
2019-05-19T18:38:04.415Z,60.48
2019-05-19T18:40:33.798Z,59.77
2019-05-19T18:43:03.402Z,59.75
2019-05-19T18:45:32.918Z,61.98
2019-05-19T18:48:02.379Z,66.30
2019-05-19T18:50:31.949Z,66.95
2019-05-19T18:53:01.396Z,62.80
2019-05-19T18:55:34.521Z,70.12
2019-05-19T18:58:04.121Z,63.90
2019-05-19T19:00:36.067Z,64.77
2019-05-19T19:03:06.339Z,63.87
2019-05-19T19:05:35.789Z,69.50
2019-05-19T19:08:05.281Z,62.08
2019-05-19T19:10:34.737Z,64.03
2019-05-19T19:13:04.113Z,63.28
2019-05-19T19:15:33.479Z,68.55
2019-05-19T19:18:02.928Z,74.20
2019-05-19T19:20:32.601Z,71.42
2019-05-19T19:23:01.977Z,64.87
2019-05-19T19:25:31.509Z,63.08
2019-05-19T19:28:01.047Z,68.62
2019-05-19T19:30:31.764Z,62.48
2019-05-19T19:33:01.192Z,64.07
2019-05-19T19:35:38.730Z,74.50
2019-05-19T19:40:33.177Z,66.10
2019-05-19T19:43:02.964Z,63.02
2019-05-19T19:45:32.432Z,60.08
2019-05-19T19:48:01.904Z,62.40
2019-05-19T19:50:31.362Z,61.58
2019-05-19T19:53:00.798Z,62.35
2019-05-19T19:55:30.538Z,66.70
2019-05-19T19:57:59.986Z,61.13
2019-05-19T20:00:38.701Z,64.60
2019-05-19T20:03:08.951Z,67.47
2019-05-19T20:05:42.785Z,58.87
2019-05-19T20:08:12.455Z,70.12
2019-05-19T20:10:42.203Z,64.62
2019-05-19T20:13:11.612Z,71.10
2019-05-19T20:15:41.036Z,64.75
2019-05-19T20:18:10.470Z,65.22
2019-05-19T20:20:39.954Z,66.17
2019-05-19T20:23:09.395Z,64.47
2019-05-19T20:25:39.042Z,64.58
2019-05-19T20:28:08.489Z,68.17
2019-05-19T20:30:38.009Z,70.95
2019-05-19T20:33:07.528Z,69.42
2019-05-19T20:35:36.910Z,69.67
2019-05-19T20:38:06.375Z,62.23
2019-05-19T20:40:35.820Z,67.82
2019-05-19T20:43:05.365Z,63.35
2019-05-19T20:45:34.876Z,71.10
2019-05-19T20:48:04.692Z,63.50
2019-05-19T20:50:35.722Z,62.65
2019-05-19T20:53:05.139Z,66.60
2019-05-19T20:55:34.660Z,64.22
2019-05-19T20:58:04.023Z,59.95
2019-05-19T21:00:33.460Z,63.78
2019-05-19T21:03:02.839Z,57.65
2019-05-19T21:05:32.284Z,62.00
2019-05-19T21:08:01.820Z,56.45
2019-05-19T21:10:31.315Z,52.55
2019-05-19T21:13:00.756Z,57.65
2019-05-19T21:15:30.131Z,53.10
2019-05-19T21:17:59.670Z,52.00
2019-05-19T21:20:29.189Z,54.27
2019-05-19T21:22:58.613Z,57.15
2019-05-19T21:25:27.980Z,53.95
2019-05-19T21:27:57.367Z,56.80
2019-05-19T21:30:26.783Z,63.90
2019-05-19T21:32:56.228Z,63.87
2019-05-19T21:35:25.614Z,65.03
2019-05-19T21:37:55.067Z,55.63
2019-05-19T21:40:24.436Z,60.03
2019-05-19T21:42:53.975Z,61.85
2019-05-19T21:45:23.345Z,59.70
2019-05-19T21:47:52.961Z,55.17
2019-05-19T21:50:22.528Z,58.40
2019-05-19T21:52:51.981Z,50.80
2019-05-19T21:55:21.415Z,54.18
2019-05-19T21:57:51.976Z,50.95
2019-05-19T22:00:23.660Z,51.95
2019-05-19T22:02:54.588Z,49.98
2019-05-19T22:05:23.955Z,54.45
2019-05-19T22:08:00.687Z,54.58
2019-05-19T22:10:30.043Z,58.80
2019-05-19T22:12:59.434Z,54.13
2019-05-19T22:15:28.980Z,54.10
2019-05-19T22:17:58.392Z,57.45
2019-05-19T22:20:27.845Z,60.15
2019-05-19T22:22:57.471Z,53.55
2019-05-19T22:25:26.899Z,53.30
2019-05-19T22:27:56.284Z,48.85
2019-05-19T22:30:25.747Z,49.55
2019-05-19T22:32:55.187Z,49.33
2019-05-19T22:35:24.615Z,50.03
2019-05-19T22:37:54.065Z,48.75
2019-05-19T22:40:23.420Z,53.90
2019-05-19T22:42:52.842Z,50.98
2019-05-19T22:45:22.339Z,44.73
2019-05-19T22:47:51.701Z,49.83
2019-05-19T22:50:21.309Z,51.88
2019-05-19T22:52:51.851Z,49.13
2019-05-19T22:55:21.224Z,50.95
2019-05-19T22:57:50.742Z,48.55
2019-05-19T23:00:20.884Z,54.95
2019-05-19T23:02:50.581Z,48.55
2019-05-19T23:05:20.487Z,47.27
2019-05-19T23:07:49.866Z,44.15
2019-05-19T23:10:19.962Z,45.92
2019-05-19T23:12:49.328Z,44.00
2019-05-19T23:15:19.676Z,46.60
2019-05-19T23:17:49.056Z,48.90
2019-05-19T23:20:18.791Z,41.53
2019-05-19T23:22:48.250Z,46.28
2019-05-19T23:25:17.716Z,39.45
2019-05-19T23:27:47.149Z,39.27
2019-05-19T23:30:16.652Z,39.85
2019-05-19T23:32:46.024Z,37.48
2019-05-19T23:35:16.023Z,35.52
2019-05-19T23:37:45.452Z,37.98
2019-05-19T23:40:15.040Z,35.05
2019-05-19T23:42:44.482Z,36.42
2019-05-19T23:45:14.191Z,37.75
2019-05-19T23:47:43.645Z,31.68
2019-05-19T23:50:13.771Z,33.65
2019-05-19T23:52:43.150Z,32.58
2019-05-19T23:55:13.250Z,33.95
2019-05-19T23:57:42.709Z,31.68
